Time;durP1;ratioP1;P1;durP2;ratioP2;P2;SDS_P1;SDS_P2;PMS_P1;PMS_P2;Temp;Humidity;BMP_temperature;BMP_pressure;BME280_temperature;BME280_humidity;BME280_pressure;Samples;Min_cycle;Max_cycle;Signal;HPM_P1;HPM_P2
2023/06/19 00:04:09;;;;;;;;;;;;;;;;;;10341229;28;19976;-75
2023/06/19 00:09:10;;;;;;;;;;;;;;;;;;10345948;28;19991;-76
2023/06/19 00:14:11;;;;;;;;;;;;;;;;;;10350336;28;19952;-74
2023/06/19 00:19:12;;;;;;;;;;;;;;;;;;10354611;28;19917;-74
2023/06/19 00:24:13;;;;;;;;;;;;;;;;;;10354823;28;19932;-77
2023/06/19 00:29:14;;;;;;;;;;;;;;;;;;10351770;28;19913;-75
2023/06/19 00:34:14;;;;;;;;;;;;;;;;;;10354086;28;19913;-75
2023/06/19 00:39:15;;;;;;;;;;;;;;;;;;10342986;28;19924;-77
2023/06/19 00:44:16;;;;;;;;;;;;;;;;;;10342169;28;19923;-75
2023/06/19 00:49:17;;;;;;;;;;;;;;;;;;10354342;28;20303;-76
2023/06/19 00:54:18;;;;;;;;;;;;;;;;;;10330823;28;19922;-75
2023/06/19 00:59:19;;;;;;;;;;;;;;;;;;10344773;28;20007;-76
2023/06/19 01:04:20;;;;;;;;;;;;;;;;;;10344612;28;20000;-75
2023/06/19 01:09:21;;;;;;;;;;;;;;;;;;10342321;28;20020;-75
2023/06/19 01:14:22;;;;;;;;;;;;;;;;;;10334701;28;19918;-76
2023/06/19 01:19:25;;;;;;;;;;;;;;;;;;10355439;28;20433;-75
2023/06/19 01:24:26;;;;;;;;;;;;;;;;;;10367999;28;20084;-78
2023/06/19 01:29:27;;;;;;;;;;;;;;;;;;10351471;28;20431;-76
2023/06/19 01:34:28;;;;;;;;;;;;;;;;;;10335548;28;19992;-76
2023/06/19 01:39:29;;;;;;;;;;;;;;;;;;10352006;28;20465;-75
2023/06/19 01:44:30;;;;;;;;;;;;;;;;;;10362443;28;19922;-75
2023/06/19 01:49:31;;;;;;;;;;;;;;;;;;10336795;28;19921;-76
2023/06/19 01:54:33;;;;;;;;;;;;;;;;;;10340453;28;19917;-75
2023/06/19 01:59:33;;;;;;;;;;;;;;;;;;10348923;28;19975;-76
2023/06/19 02:04:34;;;;;;;;;;;;;;;;;;10357457;28;20020;-75
2023/06/19 02:09:35;;;;;;;;;;;;;;;;;;10360214;28;19925;-75
2023/06/19 02:14:36;;;;;;;;;;;;;;;;;;10372026;28;19932;-76
2023/06/19 02:19:37;;;;;;;;;;;;;;;;;;10359315;28;20163;-76
2023/06/19 02:24:39;;;;;;;;;;;;;;;;;;10355592;28;19922;-76
2023/06/19 02:29:40;;;;;;;;;;;;;;;;;;10357296;28;19921;-75
2023/06/19 02:34:41;;;;;;;;;;;;;;;;;;10357367;28;19917;-75
2023/06/19 02:39:41;;;;;;;;;;;;;;;;;;10357737;28;19917;-75
2023/06/19 02:44:43;;;;;;;;;;;;;;;;;;10357641;28;20514;-75
2023/06/19 02:49:44;;;;;;;;;;;;;;;;;;10361285;28;19925;-75
2023/06/19 02:54:45;;;;;;;;;;;;;;;;;;10353022;28;19952;-75
2023/06/19 02:59:45;;;;;;;;;;;;;;;;;;10351919;28;20704;-74
2023/06/19 03:04:50;;;;;;;;;;;;;;;;;;10353235;28;19948;-75
2023/06/19 03:09:52;;;;;;;;;;;;;;;;;;10351807;28;19917;-75
2023/06/19 03:14:53;;;;;;;;;;;;;;;;;;10345340;28;19917;-74
2023/06/19 03:19:54;;;;;;;;;;;;;;;;;;10342982;28;19956;-74
2023/06/19 03:24:54;;;;;;;;;;;;;;;;;;10339770;28;20022;-74
2023/06/19 03:29:56;;;;;;;;;;;;;;;;;;10357838;28;19925;-74
2023/06/19 03:35:06;;;;;;;;;;;;;;;;;;10344921;28;19960;-74
2023/06/19 03:40:13;;;;;;;;;;;;;;;;;;10332449;28;20362;-74
2023/06/19 03:45:15;;;;;;;;;;;;;;;;;;10354140;28;19920;-74
2023/06/19 03:50:16;;;;;;;;;;;;;;;;;;10360986;28;19936;-74
2023/06/19 03:55:17;;;;;;;;;;;;;;;;;;10340516;28;19917;-74
2023/06/19 04:00:18;;;;;;;;;;;;;;;;;;10347161;28;20479;-75
2023/06/19 04:05:19;;;;;;;;;;;;;;;;;;10340574;28;19918;-74
2023/06/19 04:10:20;;;;;;;;;;;;;;;;;;10340637;28;20012;-74
2023/06/19 04:15:21;;;;;;;;;;;;;;;;;;10343043;28;19917;-75
2023/06/19 04:20:22;;;;;;;;;;;;;;;;;;10350140;28;20268;-75
2023/06/19 04:25:23;;;;;;;;;;;;;;;;;;10347536;28;19917;-75
2023/06/19 04:30:24;;;;;;;;;;;;;;;;;;10337766;28;20548;-75
2023/06/19 04:35:25;;;;;;;;;;;;;;;;;;10346505;28;19932;-75
2023/06/19 04:40:26;;;;;;;;;;;;;;;;;;10329119;28;20945;-76
2023/06/19 04:45:27;;;;;;;;;;;;;;;;;;10338194;28;19948;-75
2023/06/19 04:50:28;;;;;;;;;;;;;;;;;;10351818;28;20501;-75
2023/06/19 04:55:30;;;;;;;;;;;;;;;;;;10348855;28;19928;-75
2023/06/19 05:00:31;;;;;;;;;;;;;;;;;;10350382;28;19956;-77
2023/06/19 05:05:32;;;;;;;;;;;;;;;;;;10350028;28;19917;-75
2023/06/19 05:10:33;;;;;;;;;;;;;;;;;;10348070;28;19921;-75
2023/06/19 05:15:34;;;;;;;;;;;;;;;;;;10340509;28;19925;-76
2023/06/19 05:20:35;;;;;;;;;;;;;;;;;;10348277;28;20653;-77
2023/06/19 05:25:36;;;;;;;;;;;;;;;;;;10350393;28;20443;-78
2023/06/19 05:30:37;;;;;;;;;;;;;;;;;;10362754;28;19924;-78
2023/06/19 05:35:38;;;;;;;;;;;;;;;;;;10355037;28;19921;-77
2023/06/19 05:40:39;;;;;;;;;;;;;;;;;;10370530;28;19921;-80
2023/06/19 05:45:40;;;;;;;;;;;;;;;;;;10347547;28;19917;-78
2023/06/19 05:50:41;;;;;;;;;;;;;;;;;;10348191;28;19936;-79
2023/06/19 05:55:42;;;;;;;;;;;;;;;;;;10365975;28;19920;-81
2023/06/19 06:00:43;;;;;;;;;;;;;;;;;;10369450;28;19929;-79
2023/06/19 06:05:48;;;;;;;;;;;;;;;;;;10362378;28;19928;-79
2023/06/19 06:10:49;;;;;;;;;;;;;;;;;;10359099;28;19935;-79
2023/06/19 06:15:50;;;;;;;;;;;;;;;;;;10356603;28;20284;-79
2023/06/19 06:20:51;;;;;;;;;;;;;;;;;;10350174;28;19921;-80
2023/06/19 06:25:52;;;;;;;;;;;;;;;;;;10353813;28;20138;-79
2023/06/19 06:30:53;;;;;;;;;;;;;;;;;;10341966;28;19976;-80
2023/06/19 06:35:54;;;;;;;;;;;;;;;;;;10346126;28;19983;-78
2023/06/19 06:40:55;;;;;;;;;;;;;;;;;;10341531;28;19923;-80
2023/06/19 06:45:56;;;;;;;;;;;;;;;;;;10348147;28;20043;-79
2023/06/19 06:51:01;;;;;;;;;;;;;;;;;;10349926;28;19925;-79
2023/06/19 06:56:02;;;;;;;;;;;;;;;;;;10349366;28;19955;-79
2023/06/19 07:01:03;;;;;;;;;;;;;;;;;;10349030;28;20003;-80
2023/06/19 07:06:04;;;;;;;;;;;;;;;;;;10355545;28;19930;-79
2023/06/19 07:11:05;;;;;;;;;;;;;;;;;;10343000;28;20003;-80
2023/06/19 07:16:06;;;;;;;;;;;;;;;;;;10351616;28;20459;-79
2023/06/19 07:21:07;;;;;;;;;;;;;;;;;;10348457;28;19922;-80
2023/06/19 07:26:08;;;;;;;;;;;;;;;;;;10348178;28;19925;-79
2023/06/19 07:31:09;;;;;;;;;;;;;;;;;;10351800;28;19926;-80
2023/06/19 07:36:13;;;;;;;;;;;;;;;;;;10345496;28;20438;-78
2023/06/19 07:41:14;;;;;;;;;;;;;;;;;;10340530;28;19964;-78
2023/06/19 07:46:16;;;;;;;;;;;;;;;;;;10344264;28;19983;-78
2023/06/19 07:51:17;;;;;;;;;;;;;;;;;;10345252;28;20024;-78
2023/06/19 07:56:18;;;;;;;;;;;;;;;;;;10344549;28;19917;-79
2023/06/19 08:01:19;;;;;;;;;;;;;;;;;;10345105;28;19967;-75
2023/06/19 08:06:20;;;;;;;;;;;;;;;;;;10336345;28;19979;-76
2023/06/19 08:11:21;;;;;;;;;;;;;;;;;;10341427;28;20738;-76
2023/06/19 08:16:22;;;;;;;;;;;;;;;;;;10340997;28;19917;-78
2023/06/19 08:21:24;;;;;;;;;;;;;;;;;;10340560;28;19921;-76
2023/06/19 08:26:25;;;;;;;;;;;;;;;;;;10375749;28;19971;-76
2023/06/19 08:31:28;;;;;;;;;;;;;;;;;;10351189;28;19921;-76
2023/06/19 08:36:29;;;;;;;;;;;;;;;;;;10341669;28;20369;-78
2023/06/19 08:41:30;;;;;;;;;;;;;;;;;;10355452;28;19920;-76
2023/06/19 08:46:30;;;;;;;;;;;;;;;;;;10364109;28;19925;-76
2023/06/19 08:51:32;;;;;;;;;;;;;;;;;;10359137;28;19929;-76
2023/06/19 08:56:35;;;;;;;;;;;;;;;;;;10331902;28;19924;-76
2023/06/19 09:01:36;;;;;;;;;;;;;;;;;;10354367;28;19921;-76
2023/06/19 09:06:38;;;;;;;;;;;;;;;;;;10347351;28;19933;-76
2023/06/19 09:11:43;;;;;;;;;;;;;;;;;;10351492;28;20445;-76
2023/06/19 09:16:44;;;;;;;;;;;;;;;;;;10356552;28;19913;-76
2023/06/19 09:21:44;;;;;;;;;;;;;;;;;;10365628;28;19921;-80
2023/06/19 09:26:45;;;;;;;;;;;;;;;;;;10357663;28;19917;-76
2023/06/19 09:31:46;;;;;;;;;;;;;;;;;;10354414;28;19967;-77
2023/06/19 09:36:47;;;;;;;;;;;;;;;;;;10349499;28;19960;-76
2023/06/19 09:41:48;;;;;;;;;;;;;;;;;;10330084;28;19913;-77
2023/06/19 09:46:49;;;;;;;;;;;;;;;;;;10345376;28;20600;-77
2023/06/19 09:51:50;;;;;;;;;;;;;;;;;;10343854;28;19925;-77
2023/06/19 09:56:53;;;;;;;;;;;;;;;;;;10334710;28;19917;-76
2023/06/19 10:01:54;;;;;;;;;;;;;;;;;;10346287;28;19921;-75
2023/06/19 10:06:57;;;;;;;;;;;;;;;;;;10348133;28;20337;-76
2023/06/19 10:11:58;;;;;;;;;;;;;;;;;;10329451;28;20379;-77
2023/06/19 10:16:59;;;;;;;;;;;;;;;;;;10349638;28;19921;-76
2023/06/19 10:22:00;;;;;;;;;;;;;;;;;;10354317;28;19921;-77
2023/06/19 10:27:01;;;;;;;;;;;;;;;;;;10358097;28;19932;-78
2023/06/19 10:32:02;;;;;;;;;;;;;;;;;;10355354;28;21712;-76
2023/06/19 10:37:03;;;;;;;;;;;;;;;;;;10357327;28;19929;-77
2023/06/19 10:42:04;;;;;;;;;;;;;;;;;;10351103;28;19970;-77
2023/06/19 10:47:07;;;;;;;;;;;;;;;;;;10342700;28;20689;-78
2023/06/19 10:52:08;;;;;;;;;;;;;;;;;;10344560;28;19975;-76
2023/06/19 10:57:08;;;;;;;;;;;;;;;;;;10350176;28;19923;-76
2023/06/19 11:02:09;;;;;;;;;;;;;;;;;;10347939;28;19917;-77
2023/06/19 11:07:10;;;;;;;;;;;;;;;;;;10354657;28;20485;-76
2023/06/19 11:12:11;;;;;;;;;;;;;;;;;;10348453;28;20003;-76
2023/06/19 11:17:12;;;;;;;;;;;;;;;;;;10321318;28;19924;-78
2023/06/19 11:22:13;;;;;;;;;;;;;;;;;;10341758;28;19917;-75
2023/06/19 11:27:14;;;;;;;;;;;;;;;;;;10346202;28;19913;-76
2023/06/19 11:32:15;;;;;;;;;;;;;;;;;;10336966;28;19927;-76
2023/06/19 11:37:17;;;;;;;;;;;;;;;;;;10326042;28;20054;-76
2023/06/19 11:42:18;;;;;;;;;;;;;;;;;;10351733;28;19983;-77
2023/06/19 11:47:19;;;;;;;;;;;;;;;;;;10329997;28;19995;-76
2023/06/19 11:52:20;;;;;;;;;;;;;;;;;;10350055;28;19929;-77
2023/06/19 11:57:21;;;;;;;;;;;;;;;;;;10343222;28;19967;-77
2023/06/19 12:02:22;;;;;;;;;;;;;;;;;;10346471;28;20349;-77
2023/06/19 12:07:23;;;;;;;;;;;;;;;;;;10346348;28;19921;-76
2023/06/19 12:12:25;;;;;;;;;;;;;;;;;;10349790;28;19921;-77
2023/06/19 12:17:26;;;;;;;;;;;;;;;;;;10339037;28;19921;-76
2023/06/19 12:22:28;;;;;;;;;;;;;;;;;;10340508;28;19922;-77
2023/06/19 12:27:29;;;;;;;;;;;;;;;;;;10349010;28;19928;-78
2023/06/19 12:32:30;;;;;;;;;;;;;;;;;;10331273;28;19960;-76
2023/06/19 12:37:31;;;;;;;;;;;;;;;;;;10343978;28;20290;-77
2023/06/19 12:42:32;;;;;;;;;;;;;;;;;;10327231;28;20817;-76
2023/06/19 12:47:33;;;;;;;;;;;;;;;;;;10336156;28;19948;-76
2023/06/19 12:52:34;;;;;;;;;;;;;;;;;;10334914;28;19928;-77
2023/06/19 12:57:35;;;;;;;;;;;;;;;;;;10344125;28;19921;-77
2023/06/19 13:02:36;;;;;;;;;;;;;;;;;;10342036;28;19917;-75
2023/06/19 13:07:37;;;;;;;;;;;;;;;;;;10326363;28;19917;-76
2023/06/19 13:12:38;;;;;;;;;;;;;;;;;;10347716;28;19925;-76
2023/06/19 13:17:39;;;;;;;;;;;;;;;;;;10344945;28;19921;-76
2023/06/19 13:22:40;;;;;;;;;;;;;;;;;;10349129;28;20305;-76
2023/06/19 13:27:41;;;;;;;;;;;;;;;;;;10351075;28;20282;-77
2023/06/19 13:32:42;;;;;;;;;;;;;;;;;;10344527;28;19970;-75
2023/06/19 13:37:43;;;;;;;;;;;;;;;;;;10354466;28;20067;-77
2023/06/19 13:42:44;;;;;;;;;;;;;;;;;;10354225;28;19917;-76
2023/06/19 13:47:45;;;;;;;;;;;;;;;;;;10345690;28;19917;-77
2023/06/19 13:52:46;;;;;;;;;;;;;;;;;;10340101;28;19968;-76
2023/06/19 13:57:47;;;;;;;;;;;;;;;;;;10360849;28;19921;-77
2023/06/19 14:02:49;;;;;;;;;;;;;;;;;;10345576;28;19920;-79
2023/06/19 14:07:51;;;;;;;;;;;;;;;;;;10350911;28;20486;-79
2023/06/19 14:12:52;;;;;;;;;;;;;;;;;;10347359;28;19951;-81
2023/06/19 14:17:53;;;;;;;;;;;;;;;;;;10361438;28;19913;-79
2023/06/19 14:22:54;;;;;;;;;;;;;;;;;;10367693;28;20091;-78
2023/06/19 14:27:55;;;;;;;;;;;;;;;;;;10363148;28;20011;-79
2023/06/19 14:32:56;;;;;;;;;;;;;;;;;;10352023;28;20350;-79
2023/06/19 14:37:57;;;;;;;;;;;;;;;;;;10351508;28;19913;-79
2023/06/19 14:42:58;;;;;;;;;;;;;;;;;;10351710;28;19967;-77
2023/06/19 14:47:59;;;;;;;;;;;;;;;;;;10350129;28;19921;-77
2023/06/19 14:53:00;;;;;;;;;;;;;;;;;;10332204;28;19932;-77
2023/06/19 14:58:01;;;;;;;;;;;;;;;;;;10344964;28;21075;-77
2023/06/19 15:03:02;;;;;;;;;;;;;;;;;;10344306;28;19917;-77
2023/06/19 15:08:03;;;;;;;;;;;;;;;;;;10340160;28;20048;-77
2023/06/19 15:13:04;;;;;;;;;;;;;;;;;;10344739;28;19948;-76
2023/06/19 15:18:06;;;;;;;;;;;;;;;;;;10342516;28;19959;-76
2023/06/19 15:23:07;;;;;;;;;;;;;;;;;;10339587;28;20000;-77
2023/06/19 15:28:08;;;;;;;;;;;;;;;;;;10347223;28;19923;-76
2023/06/19 15:33:09;;;;;;;;;;;;;;;;;;10342565;28;19925;-78
2023/06/19 15:38:10;;;;;;;;;;;;;;;;;;10342418;28;20554;-77
2023/06/19 15:43:11;;;;;;;;;;;;;;;;;;10349698;28;19921;-77
2023/06/19 15:48:13;;;;;;;;;;;;;;;;;;10343871;28;19972;-78
2023/06/19 15:53:14;;;;;;;;;;;;;;;;;;10346855;28;19921;-77
2023/06/19 15:58:16;;;;;;;;;;;;;;;;;;10350813;28;20791;-77
2023/06/19 16:03:16;;;;;;;;;;;;;;;;;;10337038;28;19917;-77
2023/06/19 16:08:17;;;;;;;;;;;;;;;;;;10345619;28;19921;-77
2023/06/19 16:13:18;;;;;;;;;;;;;;;;;;10353487;28;19921;-77
2023/06/19 16:18:19;;;;;;;;;;;;;;;;;;10353950;28;19917;-78
2023/06/19 16:23:20;;;;;;;;;;;;;;;;;;10314849;28;20950;-80
2023/06/19 16:28:21;;;;;;;;;;;;;;;;;;10329502;28;19925;-80
2023/06/19 16:33:22;;;;;;;;;;;;;;;;;;10330301;28;20479;-78
2023/06/19 16:38:23;;;;;;;;;;;;;;;;;;10346513;28;25039;-78
2023/06/19 16:43:24;;;;;;;;;;;;;;;;;;10348961;28;24581;-79
2023/06/19 16:48:25;;;;;;;;;;;;;;;;;;10350748;28;19984;-78
2023/06/19 16:53:26;;;;;;;;;;;;;;;;;;10355702;28;19951;-77
2023/06/19 16:58:27;;;;;;;;;;;;;;;;;;10348032;28;19917;-77
2023/06/19 17:03:28;;;;;;;;;;;;;;;;;;10346341;28;19917;-78
2023/06/19 17:08:29;;;;;;;;;;;;;;;;;;10337857;28;20040;-78
2023/06/19 17:13:30;;;;;;;;;;;;;;;;;;10358340;28;19917;-78
2023/06/19 17:18:31;;;;;;;;;;;;;;;;;;10345652;28;21488;-77
2023/06/19 17:23:32;;;;;;;;;;;;;;;;;;10361613;28;19917;-78
2023/06/19 17:28:33;;;;;;;;;;;;;;;;;;10372253;28;19917;-77
2023/06/19 17:33:34;;;;;;;;;;;;;;;;;;10368052;28;20334;-78
2023/06/19 17:38:35;;;;;;;;;;;;;;;;;;10345633;28;19967;-76
2023/06/19 17:43:36;;;;;;;;;;;;;;;;;;10354609;28;20442;-78
2023/06/19 17:48:37;;;;;;;;;;;;;;;;;;10335821;28;19925;-79
2023/06/19 17:53:38;;;;;;;;;;;;;;;;;;10336702;28;19924;-79
2023/06/19 17:58:39;;;;;;;;;;;;;;;;;;10348007;28;19920;-79
2023/06/19 18:03:40;;;;;;;;;;;;;;;;;;10350581;28;19979;-79
2023/06/19 18:08:41;;;;;;;;;;;;;;;;;;10346238;28;19917;-79
2023/06/19 18:13:42;;;;;;;;;;;;;;;;;;10350010;28;20517;-76
2023/06/19 18:18:43;;;;;;;;;;;;;;;;;;10341131;28;20518;-78
2023/06/19 18:23:43;;;;;;;;;;;;;;;;;;10333242;28;19917;-79
2023/06/19 18:28:44;;;;;;;;;;;;;;;;;;10345486;28;19963;-78
2023/06/19 18:33:45;;;;;;;;;;;;;;;;;;10342475;28;20682;-78
2023/06/19 18:38:46;;;;;;;;;;;;;;;;;;10344529;28;20119;-78
2023/06/19 18:43:47;;;;;;;;;;;;;;;;;;10345866;28;20474;-79
2023/06/19 18:48:48;;;;;;;;;;;;;;;;;;10345540;28;19924;-79
2023/06/19 18:53:49;;;;;;;;;;;;;;;;;;10319732;28;19940;-78
2023/06/19 18:58:50;;;;;;;;;;;;;;;;;;10343976;28;19960;-76
2023/06/19 19:03:51;;;;;;;;;;;;;;;;;;10342590;28;19921;-78
2023/06/19 19:08:56;;;;;;;;;;;;;;;;;;10342724;28;19917;-78
2023/06/19 19:13:56;;;;;;;;;;;;;;;;;;10323043;28;19920;-79
2023/06/19 19:18:57;;;;;;;;;;;;;;;;;;10319851;28;19961;-79
2023/06/19 19:23:58;;;;;;;;;;;;;;;;;;10337371;28;19925;-79
2023/06/19 19:28:59;;;;;;;;;;;;;;;;;;10348101;28;19916;-74
2023/06/19 19:34:00;;;;;;;;;;;;;;;;;;10350437;28;20161;-76
2023/06/19 19:39:01;;;;;;;;;;;;;;;;;;10345809;28;19921;-78
2023/06/19 19:44:02;;;;;;;;;;;;;;;;;;10343958;28;19967;-77
2023/06/19 19:49:03;;;;;;;;;;;;;;;;;;10340638;28;20359;-77
2023/06/19 19:54:04;;;;;;;;;;;;;;;;;;10345499;28;19932;-77
2023/06/19 19:59:05;;;;;;;;;;;;;;;;;;10326769;28;19921;-78
2023/06/19 20:04:06;;;;;;;;;;;;;;;;;;10360024;28;19917;-76
2023/06/19 20:09:08;;;;;;;;;;;;;;;;;;10356334;28;19922;-76
2023/06/19 20:14:09;;;;;;;;;;;;;;;;;;10353774;28;20007;-76
2023/06/19 20:19:10;;;;;;;;;;;;;;;;;;10354427;28;19979;-75
2023/06/19 20:24:11;;;;;;;;;;;;;;;;;;10362994;28;19921;-75
2023/06/19 20:29:12;;;;;;;;;;;;;;;;;;10363452;28;19925;-76
2023/06/19 20:34:13;;;;;;;;;;;;;;;;;;10361743;28;19924;-75
2023/06/19 20:39:14;;;;;;;;;;;;;;;;;;10370022;28;19913;-75
2023/06/19 20:44:15;;;;;;;;;;;;;;;;;;10362161;28;20576;-76
2023/06/19 20:49:16;;;;;;;;;;;;;;;;;;10366138;28;19925;-75
2023/06/19 20:54:18;;;;;;;;;;;;;;;;;;10377249;28;20055;-78
2023/06/19 20:59:19;;;;;;;;;;;;;;;;;;10355305;28;19924;-75
2023/06/19 21:04:19;;;;;;;;;;;;;;;;;;10364952;28;19918;-76
2023/06/19 21:09:20;;;;;;;;;;;;;;;;;;10354933;28;19923;-76
2023/06/19 21:14:22;;;;;;;;;;;;;;;;;;10367494;28;19936;-76
2023/06/19 21:19:23;;;;;;;;;;;;;;;;;;10353894;28;19933;-76
2023/06/19 21:24:23;;;;;;;;;;;;;;;;;;10360045;28;19959;-77
2023/06/19 21:29:24;;;;;;;;;;;;;;;;;;10360330;28;19917;-75
2023/06/19 21:34:25;;;;;;;;;;;;;;;;;;10368109;28;20012;-76
2023/06/19 21:39:26;;;;;;;;;;;;;;;;;;10335790;28;19999;-77
2023/06/19 21:44:27;;;;;;;;;;;;;;;;;;10362652;28;19917;-75
2023/06/19 21:49:28;;;;;;;;;;;;;;;;;;10361095;28;19925;-76
2023/06/19 21:54:29;;;;;;;;;;;;;;;;;;10351073;28;19921;-75
2023/06/19 21:59:30;;;;;;;;;;;;;;;;;;10352349;28;19917;-75
2023/06/19 22:04:31;;;;;;;;;;;;;;;;;;10345457;28;19917;-76
2023/06/19 22:09:33;;;;;;;;;;;;;;;;;;10331433;28;20063;-76
2023/06/19 22:14:37;;;;;;;;;;;;;;;;;;10363084;28;19929;-76
2023/06/19 22:19:38;;;;;;;;;;;;;;;;;;10352377;28;19917;-76
2023/06/19 22:24:39;;;;;;;;;;;;;;;;;;10338826;28;20044;-75
2023/06/19 22:29:40;;;;;;;;;;;;;;;;;;10362473;28;19920;-76
2023/06/19 22:34:41;;;;;;;;;;;;;;;;;;10359707;28;20315;-76
2023/06/19 22:39:42;;;;;;;;;;;;;;;;;;10356904;28;19997;-76
2023/06/19 22:44:43;;;;;;;;;;;;;;;;;;10340385;28;19917;-76
2023/06/19 22:49:44;;;;;;;;;;;;;;;;;;10358578;28;20003;-75
2023/06/19 22:54:45;;;;;;;;;;;;;;;;;;10349256;28;19933;-77
2023/06/19 22:59:46;;;;;;;;;;;;;;;;;;10345589;28;19922;-78
2023/06/19 23:04:47;;;;;;;;;;;;;;;;;;10351567;28;19924;-75
2023/06/19 23:09:48;;;;;;;;;;;;;;;;;;10372973;28;19983;-75
2023/06/19 23:14:49;;;;;;;;;;;;;;;;;;10361404;28;20592;-77
2023/06/19 23:19:50;;;;;;;;;;;;;;;;;;10354551;28;19932;-76
2023/06/19 23:24:51;;;;;;;;;;;;;;;;;;10352231;28;19917;-75
2023/06/19 23:29:52;;;;;;;;;;;;;;;;;;10355703;28;19924;-75
2023/06/19 23:34:53;;;;;;;;;;;;;;;;;;10348641;28;20512;-76
2023/06/19 23:39:54;;;;;;;;;;;;;;;;;;10346964;28;19917;-78
2023/06/19 23:44:55;;;;;;;;;;;;;;;;;;10337131;28;20796;-76
2023/06/19 23:49:56;;;;;;;;;;;;;;;;;;10338073;28;19925;-75
2023/06/19 23:54:57;;;;;;;;;;;;;;;;;;10323927;28;20826;-75
2023/06/19 23:59:58;;;;;;;;;;;;;;;;;;10342599;28;19932;-75
